Koumac Nlle-Caledonie, New Caledonia
Current Conditions -  °F | °C
As of 11:30 PM on Thursday 29 Jan 2015 (Local Time) from NWWW Reporting Station
Clear Clear  
Wind Chill: 84°   Ceiling: Unl
Heat Index: 86°   Visibility: 6mi
Dew Point: 66°   Wind: 10mph
Humidity: 55%   Direction: 10°N
Pressure: 29.65"   Gusts: NA
Location:  20.57°S, 164.28°E
Report Text: NWWW 291230Z AUTO 01009KT 9999 NSC 29/19 Q1004
Loading
Personal Weather Stations






























Interactive Weather Map New forecast layout! Learn more

10-Day Weather Forecast

Advertisements
Track Severe Weather on mobile